sensor_id;sensor_type;location;lat;lon;timestamp;temperature;humidity
3262;DHT22;1643;47.746;9.000;2023-09-12T00:00:41;21.60;99.90
3262;DHT22;1643;47.746;9.000;2023-09-12T00:03:07;21.50;99.90
3262;DHT22;1643;47.746;9.000;2023-09-12T00:05:32;21.50;99.90
3262;DHT22;1643;47.746;9.000;2023-09-12T00:07:58;21.50;99.90
3262;DHT22;1643;47.746;9.000;2023-09-12T00:10:23;21.60;99.90
3262;DHT22;1643;47.746;9.000;2023-09-12T00:12:50;21.60;99.90
3262;DHT22;1643;47.746;9.000;2023-09-12T00:15:15;21.60;99.90
3262;DHT22;1643;47.746;9.000;2023-09-12T00:17:41;21.60;99.90
3262;DHT22;1643;47.746;9.000;2023-09-12T00:20:07;21.50;99.90
3262;DHT22;1643;47.746;9.000;2023-09-12T00:22:33;21.50;99.90
3262;DHT22;1643;47.746;9.000;2023-09-12T00:24:59;21.50;99.90
3262;DHT22;1643;47.746;9.000;2023-09-12T00:27:24;21.50;99.90
3262;DHT22;1643;47.746;9.000;2023-09-12T00:29:50;21.50;99.90
3262;DHT22;1643;47.746;9.000;2023-09-12T00:32:16;21.50;99.90
3262;DHT22;1643;47.746;9.000;2023-09-12T00:34:41;21.50;99.90
3262;DHT22;1643;47.746;9.000;2023-09-12T00:37:07;21.50;99.90
3262;DHT22;1643;47.746;9.000;2023-09-12T00:39:33;21.50;99.90
3262;DHT22;1643;47.746;9.000;2023-09-12T00:41:58;21.40;99.90
3262;DHT22;1643;47.746;9.000;2023-09-12T00:44:24;21.40;99.90
3262;DHT22;1643;47.746;9.000;2023-09-12T00:46:49;21.40;99.90
3262;DHT22;1643;47.746;9.000;2023-09-12T00:49:16;21.30;99.90
3262;DHT22;1643;47.746;9.000;2023-09-12T00:51:44;21.40;99.90
3262;DHT22;1643;47.746;9.000;2023-09-12T00:54:10;21.40;99.90
3262;DHT22;1643;47.746;9.000;2023-09-12T00:56:36;21.40;99.90
3262;DHT22;1643;47.746;9.000;2023-09-12T00:59:02;21.30;99.90
3262;DHT22;1643;47.746;9.000;2023-09-12T01:01:29;21.30;99.90
3262;DHT22;1643;47.746;9.000;2023-09-12T01:03:55;21.30;99.90
3262;DHT22;1643;47.746;9.000;2023-09-12T01:06:23;21.20;99.90
3262;DHT22;1643;47.746;9.000;2023-09-12T01:08:51;21.20;99.90
3262;DHT22;1643;47.746;9.000;2023-09-12T01:11:17;21.10;99.90
3262;DHT22;1643;47.746;9.000;2023-09-12T01:13:43;21.00;99.90
3262;DHT22;1643;47.746;9.000;2023-09-12T01:16:08;20.90;99.90
3262;DHT22;1643;47.746;9.000;2023-09-12T01:18:34;20.80;99.90
3262;DHT22;1643;47.746;9.000;2023-09-12T01:27:19;20.70;99.90
3262;DHT22;1643;47.746;9.000;2023-09-12T01:29:51;20.80;99.90
3262;DHT22;1643;47.746;9.000;2023-09-12T01:32:18;20.80;99.90
3262;DHT22;1643;47.746;9.000;2023-09-12T01:34:45;20.80;99.90
3262;DHT22;1643;47.746;9.000;2023-09-12T11:06:43;26.70;99.90
3262;DHT22;1643;47.746;9.000;2023-09-12T11:09:20;26.80;99.90
3262;DHT22;1643;47.746;9.000;2023-09-12T11:11:48;27.00;99.90
3262;DHT22;1643;47.746;9.000;2023-09-12T11:14:14;27.10;99.90
3262;DHT22;1643;47.746;9.000;2023-09-12T11:19:49;27.20;99.90
3262;DHT22;1643;47.746;9.000;2023-09-12T11:22:31;27.10;99.90
3262;DHT22;1643;47.746;9.000;2023-09-12T11:25:01;27.10;99.90
3262;DHT22;1643;47.746;9.000;2023-09-12T11:27:32;27.30;99.90
3262;DHT22;1643;47.746;9.000;2023-09-12T11:30:09;27.40;99.90
3262;DHT22;1643;47.746;9.000;2023-09-12T11:32:36;27.40;99.90
3262;DHT22;1643;47.746;9.000;2023-09-12T11:35:07;27.40;99.90
3262;DHT22;1643;47.746;9.000;2023-09-12T11:37:33;27.60;99.90
3262;DHT22;1643;47.746;9.000;2023-09-12T11:39:59;27.60;99.90
3262;DHT22;1643;47.746;9.000;2023-09-12T11:42:24;27.50;99.90
3262;DHT22;1643;47.746;9.000;2023-09-12T11:44:53;27.40;99.90
3262;DHT22;1643;47.746;9.000;2023-09-12T11:47:19;27.30;99.90
3262;DHT22;1643;47.746;9.000;2023-09-12T11:49:46;27.20;99.90
3262;DHT22;1643;47.746;9.000;2023-09-12T11:52:15;27.40;99.90
3262;DHT22;1643;47.746;9.000;2023-09-12T11:54:45;27.60;99.90
3262;DHT22;1643;47.746;9.000;2023-09-12T11:57:13;27.80;99.90
3262;DHT22;1643;47.746;9.000;2023-09-12T11:59:41;27.80;99.90
3262;DHT22;1643;47.746;9.000;2023-09-12T12:02:10;27.90;99.90
3262;DHT22;1643;47.746;9.000;2023-09-12T12:04:37;27.90;99.90
3262;DHT22;1643;47.746;9.000;2023-09-12T12:07:03;28.10;99.90
3262;DHT22;1643;47.746;9.000;2023-09-12T12:09:32;28.30;99.90
3262;DHT22;1643;47.746;9.000;2023-09-12T12:12:24;28.50;99.90
3262;DHT22;1643;47.746;9.000;2023-09-12T12:14:50;28.70;99.90
3262;DHT22;1643;47.746;9.000;2023-09-12T12:17:15;28.90;99.90
3262;DHT22;1643;47.746;9.000;2023-09-12T12:19:45;29.00;99.90
3262;DHT22;1643;47.746;9.000;2023-09-12T12:22:11;29.10;99.90
3262;DHT22;1643;47.746;9.000;2023-09-12T12:24:41;29.20;99.90
3262;DHT22;1643;47.746;9.000;2023-09-12T12:27:07;29.10;99.90
3262;DHT22;1643;47.746;9.000;2023-09-12T12:29:34;29.10;99.90
3262;DHT22;1643;47.746;9.000;2023-09-12T12:32:01;29.10;99.90
3262;DHT22;1643;47.746;9.000;2023-09-12T12:34:27;29.00;99.90
3262;DHT22;1643;47.746;9.000;2023-09-12T12:36:54;29.00;99.80
3262;DHT22;1643;47.746;9.000;2023-09-12T12:39:21;29.10;99.70
3262;DHT22;1643;47.746;9.000;2023-09-12T12:41:47;29.00;99.70
3262;DHT22;1643;47.746;9.000;2023-09-12T12:44:13;29.00;99.90
3262;DHT22;1643;47.746;9.000;2023-09-12T12:46:52;29.00;99.90
3262;DHT22;1643;47.746;9.000;2023-09-12T12:49:19;29.00;99.90
3262;DHT22;1643;47.746;9.000;2023-09-12T12:51:46;28.90;99.90
3262;DHT22;1643;47.746;9.000;2023-09-12T12:54:12;28.90;99.90
3262;DHT22;1643;47.746;9.000;2023-09-12T12:56:38;28.90;99.90
3262;DHT22;1643;47.746;9.000;2023-09-12T12:59:06;29.10;99.90
3262;DHT22;1643;47.746;9.000;2023-09-12T13:01:34;29.20;99.90
3262;DHT22;1643;47.746;9.000;2023-09-12T13:04:00;29.40;99.90
3262;DHT22;1643;47.746;9.000;2023-09-12T13:06:26;29.50;99.60
3262;DHT22;1643;47.746;9.000;2023-09-12T13:08:53;29.60;99.40
3262;DHT22;1643;47.746;9.000;2023-09-12T13:11:19;29.60;99.40
3262;DHT22;1643;47.746;9.000;2023-09-12T13:13:48;29.70;99.20
3262;DHT22;1643;47.746;9.000;2023-09-12T13:16:15;29.80;99.10
3262;DHT22;1643;47.746;9.000;2023-09-12T13:18:41;29.90;99.10
3262;DHT22;1643;47.746;9.000;2023-09-12T13:21:07;29.90;99.10
3262;DHT22;1643;47.746;9.000;2023-09-12T13:23:39;29.80;99.10
3262;DHT22;1643;47.746;9.000;2023-09-12T13:26:07;29.90;98.90
3262;DHT22;1643;47.746;9.000;2023-09-12T13:28:32;29.90;98.90
3262;DHT22;1643;47.746;9.000;2023-09-12T13:30:58;29.80;99.00
3262;DHT22;1643;47.746;9.000;2023-09-12T13:33:24;29.60;99.10
3262;DHT22;1643;47.746;9.000;2023-09-12T13:35:50;29.50;98.80
3262;DHT22;1643;47.746;9.000;2023-09-12T13:38:16;29.20;98.50
3262;DHT22;1643;47.746;9.000;2023-09-12T13:40:44;28.90;98.40
3262;DHT22;1643;47.746;9.000;2023-09-12T13:43:10;28.80;98.70
3262;DHT22;1643;47.746;9.000;2023-09-12T13:45:36;28.80;98.80
3262;DHT22;1643;47.746;9.000;2023-09-12T13:48:03;28.70;99.00
3262;DHT22;1643;47.746;9.000;2023-09-12T13:50:29;28.80;98.90
3262;DHT22;1643;47.746;9.000;2023-09-12T13:52:55;28.80;98.70
3262;DHT22;1643;47.746;9.000;2023-09-12T13:55:21;28.60;98.70
3262;DHT22;1643;47.746;9.000;2023-09-12T13:57:47;28.50;99.00
3262;DHT22;1643;47.746;9.000;2023-09-12T14:00:13;28.40;99.10
3262;DHT22;1643;47.746;9.000;2023-09-12T14:02:39;28.30;99.20
3262;DHT22;1643;47.746;9.000;2023-09-12T14:05:05;28.30;99.30
3262;DHT22;1643;47.746;9.000;2023-09-12T14:07:30;28.20;99.40
3262;DHT22;1643;47.746;9.000;2023-09-12T14:09:56;28.10;99.50
3262;DHT22;1643;47.746;9.000;2023-09-12T14:12:23;28.10;99.60
3262;DHT22;1643;47.746;9.000;2023-09-12T14:14:49;28.10;99.70
3262;DHT22;1643;47.746;9.000;2023-09-12T14:17:15;28.00;99.70
3262;DHT22;1643;47.746;9.000;2023-09-12T14:19:40;28.00;99.90
3262;DHT22;1643;47.746;9.000;2023-09-12T14:22:06;27.90;99.90
3262;DHT22;1643;47.746;9.000;2023-09-12T14:24:32;27.90;99.90
3262;DHT22;1643;47.746;9.000;2023-09-12T14:26:57;27.70;99.90
3262;DHT22;1643;47.746;9.000;2023-09-12T14:29:23;27.60;99.90
3262;DHT22;1643;47.746;9.000;2023-09-12T14:31:52;27.60;99.90
3262;DHT22;1643;47.746;9.000;2023-09-12T14:34:23;27.50;99.90
3262;DHT22;1643;47.746;9.000;2023-09-12T14:36:53;27.50;99.90
3262;DHT22;1643;47.746;9.000;2023-09-12T14:39:19;27.40;99.90
3262;DHT22;1643;47.746;9.000;2023-09-12T14:41:44;27.40;99.90
3262;DHT22;1643;47.746;9.000;2023-09-12T14:44:15;27.40;99.90
3262;DHT22;1643;47.746;9.000;2023-09-12T14:46:40;27.40;99.90
3262;DHT22;1643;47.746;9.000;2023-09-12T14:49:06;27.40;99.90
3262;DHT22;1643;47.746;9.000;2023-09-12T14:51:31;27.50;99.90
3262;DHT22;1643;47.746;9.000;2023-09-12T14:53:57;27.50;99.90
3262;DHT22;1643;47.746;9.000;2023-09-12T14:56:22;27.70;99.90
3262;DHT22;1643;47.746;9.000;2023-09-12T14:58:49;27.80;99.90
3262;DHT22;1643;47.746;9.000;2023-09-12T15:01:14;28.00;99.90
3262;DHT22;1643;47.746;9.000;2023-09-12T15:03:40;28.10;99.90
3262;DHT22;1643;47.746;9.000;2023-09-12T15:06:06;28.30;99.90
3262;DHT22;1643;47.746;9.000;2023-09-12T15:08:32;28.30;99.90
3262;DHT22;1643;47.746;9.000;2023-09-12T15:11:01;28.20;99.90
3262;DHT22;1643;47.746;9.000;2023-09-12T15:13:28;28.00;99.90
3262;DHT22;1643;47.746;9.000;2023-09-12T15:15:53;28.00;99.90
3262;DHT22;1643;47.746;9.000;2023-09-12T15:18:19;28.00;99.90
3262;DHT22;1643;47.746;9.000;2023-09-12T15:20:45;27.90;99.90
3262;DHT22;1643;47.746;9.000;2023-09-12T15:23:10;27.70;99.10
3262;DHT22;1643;47.746;9.000;2023-09-12T15:25:36;27.70;98.80
3262;DHT22;1643;47.746;9.000;2023-09-12T15:28:02;27.60;98.80
3262;DHT22;1643;47.746;9.000;2023-09-12T15:30:28;27.60;99.00
3262;DHT22;1643;47.746;9.000;2023-09-12T15:32:53;27.70;98.80
3262;DHT22;1643;47.746;9.000;2023-09-12T15:35:19;27.70;98.10
3262;DHT22;1643;47.746;9.000;2023-09-12T15:37:45;27.70;98.30
3262;DHT22;1643;47.746;9.000;2023-09-12T15:40:11;27.60;98.50
3262;DHT22;1643;47.746;9.000;2023-09-12T15:42:36;27.60;98.50
3262;DHT22;1643;47.746;9.000;2023-09-12T15:45:02;27.50;98.60
3262;DHT22;1643;47.746;9.000;2023-09-12T15:47:29;27.50;98.30
3262;DHT22;1643;47.746;9.000;2023-09-12T15:49:55;27.60;97.80
3262;DHT22;1643;47.746;9.000;2023-09-12T15:52:21;27.80;97.30
3262;DHT22;1643;47.746;9.000;2023-09-12T15:54:47;27.80;96.40
3262;DHT22;1643;47.746;9.000;2023-09-12T15:57:14;27.70;96.20
3262;DHT22;1643;47.746;9.000;2023-09-12T15:59:40;27.60;96.30
3262;DHT22;1643;47.746;9.000;2023-09-12T16:02:05;27.50;96.50
3262;DHT22;1643;47.746;9.000;2023-09-12T16:04:31;27.40;96.60
3262;DHT22;1643;47.746;9.000;2023-09-12T16:06:57;27.20;96.40
3262;DHT22;1643;47.746;9.000;2023-09-12T16:09:22;27.10;96.50
3262;DHT22;1643;47.746;9.000;2023-09-12T16:11:48;27.10;96.70
3262;DHT22;1643;47.746;9.000;2023-09-12T16:14:15;27.00;96.70
3262;DHT22;1643;47.746;9.000;2023-09-12T16:16:42;27.00;96.80
3262;DHT22;1643;47.746;9.000;2023-09-12T16:19:07;27.00;96.90
3262;DHT22;1643;47.746;9.000;2023-09-12T16:21:34;27.00;97.00
3262;DHT22;1643;47.746;9.000;2023-09-12T16:24:00;27.10;97.20
3262;DHT22;1643;47.746;9.000;2023-09-12T16:26:26;27.00;97.10
3262;DHT22;1643;47.746;9.000;2023-09-12T16:28:51;27.00;97.00
3262;DHT22;1643;47.746;9.000;2023-09-12T16:31:17;27.00;97.00
3262;DHT22;1643;47.746;9.000;2023-09-12T16:33:43;26.90;96.80
3262;DHT22;1643;47.746;9.000;2023-09-12T16:36:08;26.90;96.80
3262;DHT22;1643;47.746;9.000;2023-09-12T16:38:34;26.90;97.00
3262;DHT22;1643;47.746;9.000;2023-09-12T16:41:00;26.90;97.50
3262;DHT22;1643;47.746;9.000;2023-09-12T16:43:25;26.80;98.10
3262;DHT22;1643;47.746;9.000;2023-09-12T16:45:52;26.70;98.40
3262;DHT22;1643;47.746;9.000;2023-09-12T16:48:18;26.70;98.50
3262;DHT22;1643;47.746;9.000;2023-09-12T16:50:46;26.70;98.60
3262;DHT22;1643;47.746;9.000;2023-09-12T16:53:11;26.70;98.70
3262;DHT22;1643;47.746;9.000;2023-09-12T16:55:37;26.70;98.60
3262;DHT22;1643;47.746;9.000;2023-09-12T16:58:03;26.70;98.70
3262;DHT22;1643;47.746;9.000;2023-09-12T17:00:28;26.60;98.80
3262;DHT22;1643;47.746;9.000;2023-09-12T17:02:54;26.60;99.20
3262;DHT22;1643;47.746;9.000;2023-09-12T17:05:20;26.50;99.30
3262;DHT22;1643;47.746;9.000;2023-09-12T17:07:48;26.50;99.50
3262;DHT22;1643;47.746;9.000;2023-09-12T17:10:14;26.40;99.70
3262;DHT22;1643;47.746;9.000;2023-09-12T17:12:39;26.30;99.90
3262;DHT22;1643;47.746;9.000;2023-09-12T17:15:06;26.30;99.90
3262;DHT22;1643;47.746;9.000;2023-09-12T17:17:32;26.20;99.90
3262;DHT22;1643;47.746;9.000;2023-09-12T17:19:58;26.10;99.90
3262;DHT22;1643;47.746;9.000;2023-09-12T17:22:24;26.10;99.90
3262;DHT22;1643;47.746;9.000;2023-09-12T17:24:50;25.90;99.90
3262;DHT22;1643;47.746;9.000;2023-09-12T17:27:16;25.80;99.90
3262;DHT22;1643;47.746;9.000;2023-09-12T17:29:41;25.80;99.90
3262;DHT22;1643;47.746;9.000;2023-09-12T17:32:11;25.70;99.90
3262;DHT22;1643;47.746;9.000;2023-09-12T17:34:41;25.60;99.90
3262;DHT22;1643;47.746;9.000;2023-09-12T17:37:07;25.40;99.90
3262;DHT22;1643;47.746;9.000;2023-09-12T17:39:32;25.30;99.90
3262;DHT22;1643;47.746;9.000;2023-09-12T17:41:58;25.30;99.90
3262;DHT22;1643;47.746;9.000;2023-09-12T17:44:24;25.30;99.90
3262;DHT22;1643;47.746;9.000;2023-09-12T17:46:49;25.40;99.90
3262;DHT22;1643;47.746;9.000;2023-09-12T17:49:15;25.40;99.90
3262;DHT22;1643;47.746;9.000;2023-09-12T17:51:41;25.30;99.90
3262;DHT22;1643;47.746;9.000;2023-09-12T17:54:06;25.20;99.90
3262;DHT22;1643;47.746;9.000;2023-09-12T17:56:32;25.20;99.90
3262;DHT22;1643;47.746;9.000;2023-09-12T17:58:58;25.10;99.90
3262;DHT22;1643;47.746;9.000;2023-09-12T18:01:23;25.00;99.90
3262;DHT22;1643;47.746;9.000;2023-09-12T18:03:50;25.00;99.90
3262;DHT22;1643;47.746;9.000;2023-09-12T18:06:18;24.90;99.90
3262;DHT22;1643;47.746;9.000;2023-09-12T18:08:44;24.90;99.90
3262;DHT22;1643;47.746;9.000;2023-09-12T18:11:09;24.90;99.90
3262;DHT22;1643;47.746;9.000;2023-09-12T18:13:35;24.90;99.90
3262;DHT22;1643;47.746;9.000;2023-09-12T18:16:01;24.80;99.90
3262;DHT22;1643;47.746;9.000;2023-09-12T18:18:27;24.80;99.90
3262;DHT22;1643;47.746;9.000;2023-09-12T18:20:52;24.70;99.90
3262;DHT22;1643;47.746;9.000;2023-09-12T18:23:18;24.60;99.90
3262;DHT22;1643;47.746;9.000;2023-09-12T18:25:44;24.60;99.90
3262;DHT22;1643;47.746;9.000;2023-09-12T18:28:09;24.50;99.90
3262;DHT22;1643;47.746;9.000;2023-09-12T18:30:35;24.60;99.90
3262;DHT22;1643;47.746;9.000;2023-09-12T18:33:01;24.60;99.90
3262;DHT22;1643;47.746;9.000;2023-09-12T18:35:27;24.40;99.90
3262;DHT22;1643;47.746;9.000;2023-09-12T18:37:53;24.30;99.90
3262;DHT22;1643;47.746;9.000;2023-09-12T18:40:19;24.30;99.90
3262;DHT22;1643;47.746;9.000;2023-09-12T18:42:45;24.30;99.90
3262;DHT22;1643;47.746;9.000;2023-09-12T18:45:10;24.40;99.90
3262;DHT22;1643;47.746;9.000;2023-09-12T18:47:36;24.30;99.90
3262;DHT22;1643;47.746;9.000;2023-09-12T18:50:02;24.30;99.90
3262;DHT22;1643;47.746;9.000;2023-09-12T18:52:28;24.30;99.90
3262;DHT22;1643;47.746;9.000;2023-09-12T18:54:56;24.30;99.90
3262;DHT22;1643;47.746;9.000;2023-09-12T18:57:21;24.30;99.90
3262;DHT22;1643;47.746;9.000;2023-09-12T18:59:47;24.30;99.90
3262;DHT22;1643;47.746;9.000;2023-09-12T19:02:13;24.30;99.90
3262;DHT22;1643;47.746;9.000;2023-09-12T19:04:39;24.20;99.90
3262;DHT22;1643;47.746;9.000;2023-09-12T19:07:04;24.10;99.90
3262;DHT22;1643;47.746;9.000;2023-09-12T19:09:30;24.10;99.90
3262;DHT22;1643;47.746;9.000;2023-09-12T19:11:56;24.00;99.90
3262;DHT22;1643;47.746;9.000;2023-09-12T19:14:22;24.00;99.90
3262;DHT22;1643;47.746;9.000;2023-09-12T19:16:52;23.90;99.90
3262;DHT22;1643;47.746;9.000;2023-09-12T19:19:19;24.00;99.90
3262;DHT22;1643;47.746;9.000;2023-09-12T19:21:44;24.00;99.90
3262;DHT22;1643;47.746;9.000;2023-09-12T19:24:10;24.00;99.90
3262;DHT22;1643;47.746;9.000;2023-09-12T19:26:37;23.90;99.90
3262;DHT22;1643;47.746;9.000;2023-09-12T19:29:03;23.90;99.90
3262;DHT22;1643;47.746;9.000;2023-09-12T19:31:29;23.90;99.90
3262;DHT22;1643;47.746;9.000;2023-09-12T19:33:56;23.90;99.90
3262;DHT22;1643;47.746;9.000;2023-09-12T19:36:22;23.90;99.90
3262;DHT22;1643;47.746;9.000;2023-09-12T19:38:47;23.80;99.90
3262;DHT22;1643;47.746;9.000;2023-09-12T19:41:13;23.70;99.90
3262;DHT22;1643;47.746;9.000;2023-09-12T19:43:39;23.60;99.90
3262;DHT22;1643;47.746;9.000;2023-09-12T19:46:05;23.60;99.90
3262;DHT22;1643;47.746;9.000;2023-09-12T19:48:32;23.50;99.90
3262;DHT22;1643;47.746;9.000;2023-09-12T19:50:59;23.40;99.90
3262;DHT22;1643;47.746;9.000;2023-09-12T19:53:24;23.50;99.90
3262;DHT22;1643;47.746;9.000;2023-09-12T19:55:55;23.50;99.90
3262;DHT22;1643;47.746;9.000;2023-09-12T19:58:21;23.40;99.90
3262;DHT22;1643;47.746;9.000;2023-09-12T20:00:48;23.40;99.90
3262;DHT22;1643;47.746;9.000;2023-09-12T20:03:16;23.40;99.90
3262;DHT22;1643;47.746;9.000;2023-09-12T20:05:44;23.30;99.90
3262;DHT22;1643;47.746;9.000;2023-09-12T20:08:10;23.20;99.90
3262;DHT22;1643;47.746;9.000;2023-09-12T20:10:42;23.00;99.90
3262;DHT22;1643;47.746;9.000;2023-09-12T20:13:08;22.70;99.90
3262;DHT22;1643;47.746;9.000;2023-09-12T20:15:37;22.50;99.90
3262;DHT22;1643;47.746;9.000;2023-09-12T20:18:07;22.60;99.90
3262;DHT22;1643;47.746;9.000;2023-09-12T20:20:34;22.70;99.90
3262;DHT22;1643;47.746;9.000;2023-09-12T20:23:00;22.80;99.90
3262;DHT22;1643;47.746;9.000;2023-09-12T20:25:25;22.90;99.90
3262;DHT22;1643;47.746;9.000;2023-09-12T20:27:51;22.90;99.90
3262;DHT22;1643;47.746;9.000;2023-09-12T20:30:17;22.90;99.90
3262;DHT22;1643;47.746;9.000;2023-09-12T20:32:43;22.80;99.90
3262;DHT22;1643;47.746;9.000;2023-09-12T20:35:09;22.70;99.90
3262;DHT22;1643;47.746;9.000;2023-09-12T20:37:36;22.70;99.90
3262;DHT22;1643;47.746;9.000;2023-09-12T20:40:01;22.80;99.90
3262;DHT22;1643;47.746;9.000;2023-09-12T20:42:27;22.80;99.90
3262;DHT22;1643;47.746;9.000;2023-09-12T20:44:53;22.80;99.90
3262;DHT22;1643;47.746;9.000;2023-09-12T20:47:19;22.80;99.90
3262;DHT22;1643;47.746;9.000;2023-09-12T20:49:46;22.80;99.90
3262;DHT22;1643;47.746;9.000;2023-09-12T20:52:15;22.70;99.90
3262;DHT22;1643;47.746;9.000;2023-09-12T20:54:41;22.70;99.90
3262;DHT22;1643;47.746;9.000;2023-09-12T20:57:06;22.60;99.90
3262;DHT22;1643;47.746;9.000;2023-09-12T20:59:35;22.70;99.90
3262;DHT22;1643;47.746;9.000;2023-09-12T21:02:01;22.70;99.90
3262;DHT22;1643;47.746;9.000;2023-09-12T21:04:26;22.70;99.90
3262;DHT22;1643;47.746;9.000;2023-09-12T21:06:52;22.60;99.90
3262;DHT22;1643;47.746;9.000;2023-09-12T21:09:18;22.60;99.90
3262;DHT22;1643;47.746;9.000;2023-09-12T21:11:44;22.50;99.90
3262;DHT22;1643;47.746;9.000;2023-09-12T21:14:10;22.40;99.90
3262;DHT22;1643;47.746;9.000;2023-09-12T21:16:36;22.30;99.90
3262;DHT22;1643;47.746;9.000;2023-09-12T21:19:02;22.30;99.90
3262;DHT22;1643;47.746;9.000;2023-09-12T21:21:29;22.30;99.90
3262;DHT22;1643;47.746;9.000;2023-09-12T21:23:55;22.30;99.90
3262;DHT22;1643;47.746;9.000;2023-09-12T21:26:21;22.30;99.90
3262;DHT22;1643;47.746;9.000;2023-09-12T21:28:48;22.20;99.90
3262;DHT22;1643;47.746;9.000;2023-09-12T21:31:14;22.20;99.90
3262;DHT22;1643;47.746;9.000;2023-09-12T21:33:40;22.10;99.90
3262;DHT22;1643;47.746;9.000;2023-09-12T21:36:06;22.10;99.90
3262;DHT22;1643;47.746;9.000;2023-09-12T21:38:32;22.10;99.90
3262;DHT22;1643;47.746;9.000;2023-09-12T21:40:58;22.00;99.90
3262;DHT22;1643;47.746;9.000;2023-09-12T21:43:24;22.00;99.90
3262;DHT22;1643;47.746;9.000;2023-09-12T21:45:50;22.00;99.90
3262;DHT22;1643;47.746;9.000;2023-09-12T21:48:16;22.00;99.90
3262;DHT22;1643;47.746;9.000;2023-09-12T21:50:42;22.00;99.90
3262;DHT22;1643;47.746;9.000;2023-09-12T21:53:07;22.00;99.90
3262;DHT22;1643;47.746;9.000;2023-09-12T21:55:33;22.00;99.90
3262;DHT22;1643;47.746;9.000;2023-09-12T21:58:02;21.90;99.90
3262;DHT22;1643;47.746;9.000;2023-09-12T22:00:28;21.90;99.90
3262;DHT22;1643;47.746;9.000;2023-09-12T22:02:56;21.90;99.90
3262;DHT22;1643;47.746;9.000;2023-09-12T22:05:23;21.80;99.90
3262;DHT22;1643;47.746;9.000;2023-09-12T22:07:49;21.70;99.90
3262;DHT22;1643;47.746;9.000;2023-09-12T22:10:16;21.60;99.90
3262;DHT22;1643;47.746;9.000;2023-09-12T22:12:42;21.50;99.90
3262;DHT22;1643;47.746;9.000;2023-09-12T22:15:08;21.50;99.90
3262;DHT22;1643;47.746;9.000;2023-09-12T22:17:34;21.50;99.90
3262;DHT22;1643;47.746;9.000;2023-09-12T22:20:00;21.50;99.90
3262;DHT22;1643;47.746;9.000;2023-09-12T22:22:29;21.50;99.90
3262;DHT22;1643;47.746;9.000;2023-09-12T22:24:54;21.50;99.90
3262;DHT22;1643;47.746;9.000;2023-09-12T22:27:20;21.50;99.90
3262;DHT22;1643;47.746;9.000;2023-09-12T22:29:46;21.50;99.90
3262;DHT22;1643;47.746;9.000;2023-09-12T22:32:12;21.50;99.90
3262;DHT22;1643;47.746;9.000;2023-09-12T22:34:39;21.50;99.90
3262;DHT22;1643;47.746;9.000;2023-09-12T22:37:04;21.50;99.90
3262;DHT22;1643;47.746;9.000;2023-09-12T22:39:30;21.50;99.90
3262;DHT22;1643;47.746;9.000;2023-09-12T22:41:56;21.50;99.90
3262;DHT22;1643;47.746;9.000;2023-09-12T22:44:21;21.50;99.90
3262;DHT22;1643;47.746;9.000;2023-09-12T22:46:47;21.50;99.90
3262;DHT22;1643;47.746;9.000;2023-09-12T22:49:12;21.60;99.90
3262;DHT22;1643;47.746;9.000;2023-09-12T22:51:38;21.60;99.90
3262;DHT22;1643;47.746;9.000;2023-09-12T22:54:04;21.60;99.90
3262;DHT22;1643;47.746;9.000;2023-09-12T22:56:29;21.70;99.90
3262;DHT22;1643;47.746;9.000;2023-09-12T22:58:55;21.60;99.90
3262;DHT22;1643;47.746;9.000;2023-09-12T23:01:20;21.60;99.90
3262;DHT22;1643;47.746;9.000;2023-09-12T23:03:46;21.60;99.90
3262;DHT22;1643;47.746;9.000;2023-09-12T23:06:12;21.60;99.90
3262;DHT22;1643;47.746;9.000;2023-09-12T23:08:37;21.70;99.90
3262;DHT22;1643;47.746;9.000;2023-09-12T23:11:03;21.70;99.90
3262;DHT22;1643;47.746;9.000;2023-09-12T23:13:29;21.70;99.90
3262;DHT22;1643;47.746;9.000;2023-09-12T23:15:54;21.70;99.90
3262;DHT22;1643;47.746;9.000;2023-09-12T23:18:23;21.70;99.90
3262;DHT22;1643;47.746;9.000;2023-09-12T23:20:51;21.60;99.90
3262;DHT22;1643;47.746;9.000;2023-09-12T23:23:17;21.60;99.90
3262;DHT22;1643;47.746;9.000;2023-09-12T23:25:43;21.60;99.90
3262;DHT22;1643;47.746;9.000;2023-09-12T23:28:12;21.60;99.90
3262;DHT22;1643;47.746;9.000;2023-09-12T23:30:38;21.60;99.90
3262;DHT22;1643;47.746;9.000;2023-09-12T23:33:05;21.60;99.90
3262;DHT22;1643;47.746;9.000;2023-09-12T23:35:31;21.70;99.90
3262;DHT22;1643;47.746;9.000;2023-09-12T23:37:57;21.70;99.90
3262;DHT22;1643;47.746;9.000;2023-09-12T23:40:22;21.70;99.90
3262;DHT22;1643;47.746;9.000;2023-09-12T23:42:48;21.60;99.90
3262;DHT22;1643;47.746;9.000;2023-09-12T23:45:14;21.60;99.90
3262;DHT22;1643;47.746;9.000;2023-09-12T23:47:39;21.60;99.90
3262;DHT22;1643;47.746;9.000;2023-09-12T23:50:06;21.50;99.90
3262;DHT22;1643;47.746;9.000;2023-09-12T23:52:31;21.60;99.90
3262;DHT22;1643;47.746;9.000;2023-09-12T23:54:57;21.60;99.90
3262;DHT22;1643;47.746;9.000;2023-09-12T23:57:23;21.60;99.90
3262;DHT22;1643;47.746;9.000;2023-09-12T23:59:48;21.60;99.90
